Terminal Aerodrome Forecast
Issued by NWS

Home | Current Version | Previous Version | Text Only | Print | Product List | Glossary On
Versions: 1 2 3 4 5 6 7 8 9 10 11 12
994
FTUS42 KMLB 241134
TAFLEE
TAF
KLEE 241134Z 2412/2512 09004KT P6SM BKN250
     FM241400 12007KT P6SM SCT050 SCT250
     FM242200 11012KT P6SM SCT060 SCT250
     FM250300 12006KT P6SM SCT070=

USA.gov is the U.S. government's official web portal to all federal, state and local government web resources and services.